createdAt,value
2018-05-18T00:01:02.594Z,51.97
2018-05-18T00:03:30.162Z,52.10
2018-05-18T00:05:57.714Z,48.63
2018-05-18T00:08:25.230Z,47.23
2018-05-18T00:10:52.746Z,46.00
2018-05-18T00:13:20.280Z,47.23
2018-05-18T00:15:47.806Z,47.83
2018-05-18T00:18:15.413Z,44.70
2018-05-18T00:20:42.909Z,43.10
2018-05-18T00:23:10.433Z,43.37
2018-05-18T00:25:38.071Z,46.40
2018-05-18T00:28:06.383Z,42.37
2018-05-18T00:30:33.954Z,41.40
2018-05-18T00:33:01.479Z,42.27
2018-05-18T00:35:29.429Z,44.90
2018-05-18T00:37:57.076Z,42.70
2018-05-18T00:40:24.589Z,40.80
2018-05-18T00:42:52.166Z,40.90
2018-05-18T00:45:19.707Z,43.27
2018-05-18T00:47:47.342Z,41.37
2018-05-18T00:50:14.958Z,41.97
2018-05-18T00:52:42.513Z,39.97
2018-05-18T00:55:21.647Z,43.57
2018-05-18T00:57:49.149Z,39.97
2018-05-18T01:00:16.698Z,42.50
2018-05-18T01:02:44.328Z,38.87
2018-05-18T01:05:11.866Z,41.47
2018-05-18T01:07:39.435Z,41.77
2018-05-18T01:10:07.648Z,41.30
2018-05-18T01:12:35.191Z,39.43
2018-05-18T01:15:03.047Z,41.93
2018-05-18T01:17:30.616Z,39.17
2018-05-18T01:19:58.152Z,38.90
2018-05-18T01:22:25.719Z,39.03
2018-05-18T01:24:53.222Z,38.10
2018-05-18T01:27:20.793Z,39.97
2018-05-18T01:29:48.325Z,37.23
2018-05-18T01:32:15.938Z,38.23
2018-05-18T01:34:43.462Z,40.17
2018-05-18T01:37:10.996Z,39.27
2018-05-18T01:39:38.549Z,38.73
2018-05-18T01:42:06.109Z,38.83
2018-05-18T01:44:33.670Z,40.23
2018-05-18T01:47:01.235Z,40.67
2018-05-18T01:49:29.674Z,40.47
2018-05-18T01:51:58.485Z,40.47
2018-05-18T01:54:26.076Z,41.40
2018-05-18T01:56:53.667Z,39.50
2018-05-18T01:59:21.233Z,42.40
2018-05-18T02:01:48.749Z,39.67
2018-05-18T02:04:16.339Z,39.57
2018-05-18T02:06:43.874Z,44.30
2018-05-18T02:09:11.469Z,42.00
2018-05-18T02:11:39.033Z,44.57
2018-05-18T02:14:06.548Z,43.83
2018-05-18T02:16:34.124Z,44.83
2018-05-18T02:19:01.667Z,44.40
2018-05-18T02:21:29.240Z,45.60
2018-05-18T02:23:56.825Z,43.77
2018-05-18T02:26:24.369Z,46.40
2018-05-18T02:28:52.909Z,46.70
2018-05-18T02:31:20.485Z,47.00
2018-05-18T02:33:48.046Z,46.97
2018-05-18T02:36:15.633Z,44.47
2018-05-18T02:38:43.194Z,51.47
2018-05-18T02:41:10.779Z,47.37
2018-05-18T02:43:38.321Z,48.60
2018-05-18T02:46:05.889Z,49.90
2018-05-18T02:48:33.876Z,51.43
2018-05-18T02:51:01.445Z,52.50
2018-05-18T02:53:29.047Z,50.77
2018-05-18T02:55:56.612Z,53.20
2018-05-18T02:58:24.185Z,53.23
2018-05-18T03:00:51.693Z,48.77
2018-05-18T03:03:19.249Z,52.73
2018-05-18T03:05:46.894Z,52.37
2018-05-18T03:08:14.472Z,51.27
2018-05-18T03:10:42.085Z,52.67
2018-05-18T03:13:09.610Z,49.23
2018-05-18T03:15:37.219Z,52.80
2018-05-18T03:18:04.766Z,51.50
2018-05-18T03:20:32.293Z,49.87
2018-05-18T03:23:00.228Z,49.07
2018-05-18T03:25:27.842Z,48.33
2018-05-18T03:27:55.423Z,48.60
2018-05-18T03:30:22.977Z,48.30
2018-05-18T03:32:50.515Z,48.70
2018-05-18T03:35:18.114Z,47.77
2018-05-18T03:37:45.668Z,49.40
2018-05-18T03:40:13.216Z,49.13
2018-05-18T03:42:40.781Z,49.63
2018-05-18T03:45:08.353Z,48.57
2018-05-18T03:47:35.981Z,51.30
2018-05-18T03:50:03.564Z,50.60
2018-05-18T03:52:31.135Z,48.07
2018-05-18T03:54:58.830Z,49.07
2018-05-18T03:57:26.403Z,48.17
2018-05-18T03:59:53.989Z,51.27
2018-05-18T04:02:33.475Z,45.90
2018-05-18T04:05:12.941Z,46.57
2018-05-18T04:07:59.198Z,44.00
2018-05-18T04:10:26.799Z,42.33
2018-05-18T04:12:54.355Z,40.60
2018-05-18T04:15:21.957Z,36.63
2018-05-18T04:17:49.538Z,35.37
2018-05-18T04:20:17.105Z,32.73
2018-05-18T04:22:44.697Z,30.77
2018-05-18T04:25:12.232Z,29.73
2018-05-18T04:27:39.796Z,27.50
2018-05-18T04:30:07.409Z,27.23
2018-05-18T04:32:34.946Z,28.77
2018-05-18T04:35:02.521Z,27.80
2018-05-18T04:37:30.037Z,28.10
2018-05-18T04:39:57.559Z,30.13
2018-05-18T04:42:25.150Z,29.93
2018-05-18T04:44:52.715Z,29.70
2018-05-18T04:47:20.286Z,27.10
2018-05-18T04:49:47.786Z,26.90
2018-05-18T04:52:15.382Z,25.60
2018-05-18T04:54:42.975Z,27.07
2018-05-18T04:57:10.515Z,24.97
2018-05-18T04:59:38.051Z,25.40
2018-05-18T05:02:05.607Z,25.27
2018-05-18T05:04:33.142Z,24.07
2018-05-18T05:07:00.705Z,23.97
2018-05-18T05:09:28.327Z,22.60
2018-05-18T05:11:55.943Z,20.60
2018-05-18T05:14:23.491Z,18.47
2018-05-18T05:16:51.045Z,19.03
2018-05-18T05:19:18.598Z,16.93
2018-05-18T05:21:46.160Z,16.97
2018-05-18T05:24:14.317Z,18.50
2018-05-18T05:26:41.875Z,18.50
2018-05-18T05:29:09.464Z,18.90
2018-05-18T05:31:37.005Z,19.17
2018-05-18T05:34:04.569Z,17.07
2018-05-18T05:36:32.129Z,18.17
2018-05-18T05:38:59.655Z,17.00
2018-05-18T05:41:27.209Z,16.63
2018-05-18T05:43:54.729Z,17.37
2018-05-18T05:46:22.283Z,17.00
2018-05-18T05:48:49.876Z,16.63
2018-05-18T05:51:17.421Z,16.27
2018-05-18T05:53:45.070Z,14.20
2018-05-18T05:56:12.630Z,15.50
2018-05-18T05:58:40.200Z,15.70
2018-05-18T06:01:07.728Z,15.47
2018-05-18T06:03:35.279Z,15.10
2018-05-18T06:06:02.833Z,14.93
2018-05-18T06:08:30.338Z,14.73
2018-05-18T06:10:57.886Z,15.57
2018-05-18T06:13:25.545Z,14.37
2018-05-18T06:15:53.066Z,12.27
2018-05-18T06:18:20.625Z,12.57
2018-05-18T06:20:48.215Z,11.83
2018-05-18T06:23:15.762Z,12.53
2018-05-18T07:36:39.929Z,9.55
2018-05-18T07:39:07.463Z,9.07
2018-05-18T07:41:34.997Z,9.63
2018-05-18T07:44:02.524Z,10.95
2018-05-18T07:46:30.040Z,9.40
2018-05-18T07:48:57.602Z,8.82
2018-05-18T07:51:48.637Z,9.38
2018-05-18T07:54:16.173Z,9.10
2018-05-18T07:56:43.731Z,9.00
2018-05-18T07:59:11.299Z,8.75
2018-05-18T08:04:51.370Z,8.57
2018-05-18T08:07:18.878Z,9.18
2018-05-18T08:09:46.406Z,8.32
2018-05-18T08:12:13.985Z,8.32
2018-05-18T08:14:48.433Z,8.35
2018-05-18T08:17:15.987Z,8.07
2018-05-18T08:19:43.650Z,8.75
2018-05-18T08:22:11.199Z,8.10
2018-05-18T08:24:38.718Z,8.40
2018-05-18T08:27:17.795Z,9.45
2018-05-18T08:29:45.344Z,8.43
2018-05-18T08:32:12.880Z,8.65
2018-05-18T08:34:40.393Z,7.37
2018-05-18T08:37:07.965Z,9.90
2018-05-18T08:39:35.558Z,8.52
2018-05-18T08:42:03.130Z,20.70
2018-05-18T08:53:08.643Z,8.20
2018-05-18T08:55:36.158Z,7.60
2018-05-18T08:58:03.691Z,7.72
2018-05-18T09:00:31.311Z,8.02
2018-05-18T09:02:59.629Z,7.40
2018-05-18T09:05:27.325Z,8.23
2018-05-18T09:07:54.876Z,9.65
2018-05-18T09:10:23.019Z,10.52
2018-05-18T09:12:50.531Z,7.55
2018-05-18T09:15:18.049Z,7.35
2018-05-18T09:17:45.543Z,7.28
2018-05-18T09:20:13.088Z,8.13
2018-05-18T09:22:40.607Z,7.60
2018-05-18T09:25:08.120Z,8.05
2018-05-18T09:44:16.968Z,9.57
2018-05-18T09:58:51.662Z,7.62
2018-05-18T10:30:14.797Z,8.07
2018-05-18T10:32:45.928Z,7.72
2018-05-18T10:35:16.933Z,7.65
2018-05-18T10:37:59.280Z,6.72
2018-05-18T10:40:36.778Z,7.45
2018-05-18T10:43:13.314Z,7.07
2018-05-18T10:46:03.737Z,6.93
2018-05-18T10:48:35.161Z,7.27
2018-05-18T10:51:07.340Z,7.00
2018-05-18T10:56:40.581Z,7.53
2018-05-18T10:59:18.648Z,8.63
2018-05-18T11:01:49.580Z,7.83
2018-05-18T11:04:21.187Z,7.50
2018-05-18T11:06:59.258Z,6.70
2018-05-18T11:09:55.902Z,6.30
2018-05-18T11:15:11.899Z,7.60
2018-05-18T11:17:52.191Z,6.67
2018-05-18T11:20:27.869Z,8.03
2018-05-18T11:22:59.577Z,7.90
2018-05-18T11:25:45.976Z,7.47
2018-05-18T11:28:21.162Z,6.73
2018-05-18T11:33:35.977Z,6.63
2018-05-18T11:36:15.648Z,7.20
2018-05-18T11:38:51.709Z,7.40
2018-05-18T11:41:46.606Z,6.60
2018-05-18T11:47:11.721Z,7.40
2018-05-18T11:49:51.146Z,8.10
2018-05-18T11:55:19.673Z,7.77
2018-05-18T11:57:53.864Z,7.67
2018-05-18T12:03:50.621Z,6.70
2018-05-18T12:12:27.639Z,7.30
2018-05-18T12:15:00.126Z,6.77
2018-05-18T12:17:32.539Z,7.53
2018-05-18T12:20:22.099Z,7.20
2018-05-18T12:22:58.108Z,6.23
2018-05-18T12:25:28.900Z,6.37
2018-05-18T12:28:07.817Z,6.90
2018-05-18T12:31:02.100Z,7.33
2018-05-18T12:33:34.897Z,7.17
2018-05-18T12:36:21.311Z,7.83
2018-05-18T12:38:55.879Z,7.87
2018-05-18T12:41:45.803Z,10.80
2018-05-18T12:44:19.758Z,7.70
2018-05-18T12:46:52.770Z,7.07
2018-05-18T12:49:26.875Z,7.30
2018-05-18T12:52:01.601Z,6.70
2018-05-18T12:54:35.400Z,6.93
2018-05-18T12:59:52.844Z,7.00
2018-05-18T13:02:26.108Z,7.20
2018-05-18T13:04:56.353Z,6.90
2018-05-18T13:07:24.440Z,7.10
2018-05-18T13:16:23.885Z,7.43
2018-05-18T13:19:05.494Z,8.00
2018-05-18T13:21:47.266Z,8.33
2018-05-18T13:24:34.045Z,7.83
2018-05-18T13:27:08.940Z,7.30
2018-05-18T13:29:46.591Z,7.97
2018-05-18T13:32:33.402Z,7.70
2018-05-18T13:35:10.589Z,6.67
2018-05-18T13:37:59.639Z,7.63
2018-05-18T13:46:05.212Z,7.50
2018-05-18T13:48:34.439Z,7.87
2018-05-18T13:51:10.222Z,6.90
2018-05-18T13:56:33.925Z,7.03
2018-05-18T13:59:06.953Z,8.10
2018-05-18T14:01:39.877Z,7.63
2018-05-18T14:04:36.971Z,7.57
2018-05-18T14:07:09.730Z,7.33
2018-05-18T14:09:42.658Z,7.23
2018-05-18T14:15:04.301Z,7.60
2018-05-18T14:17:44.683Z,8.53
2018-05-18T14:23:15.543Z,6.70
2018-05-18T14:25:51.414Z,6.87
2018-05-18T14:28:25.265Z,7.10
2018-05-18T14:31:23.668Z,6.83
2018-05-18T14:36:49.892Z,7.53
2018-05-18T14:42:20.974Z,7.63
2018-05-18T14:44:54.681Z,7.80
2018-05-18T14:47:23.863Z,8.10
2018-05-18T14:52:50.367Z,7.57
2018-05-18T14:55:23.209Z,8.53
2018-05-18T14:57:55.451Z,8.63
2018-05-18T15:00:28.464Z,8.40
2018-05-18T15:03:01.274Z,7.63
2018-05-18T15:05:35.123Z,7.50
2018-05-18T15:11:04.579Z,7.80
2018-05-18T15:13:41.051Z,7.97
2018-05-18T15:16:16.238Z,8.27
2018-05-18T15:19:04.255Z,8.40
2018-05-18T15:21:46.746Z,7.83
2018-05-18T15:24:17.492Z,8.07
2018-05-18T15:26:51.829Z,8.00
2018-05-18T15:29:23.134Z,6.93
2018-05-18T15:34:36.578Z,7.37
2018-05-18T15:37:06.147Z,7.13
2018-05-18T15:39:51.103Z,7.43
2018-05-18T15:42:22.143Z,6.83
2018-05-18T15:44:55.596Z,7.23
2018-05-18T15:47:30.004Z,7.43
2018-05-18T15:50:02.570Z,7.30
2018-05-18T15:55:26.853Z,6.20
2018-05-18T15:57:58.093Z,8.27
2018-05-18T16:00:35.373Z,7.83
2018-05-18T16:03:07.130Z,7.87
2018-05-18T16:05:39.452Z,8.10
2018-05-18T16:11:12.161Z,7.77
2018-05-18T16:13:44.733Z,6.90
2018-05-18T16:16:26.379Z,7.30
2018-05-18T16:18:59.725Z,7.30
2018-05-18T16:21:33.422Z,7.53
2018-05-18T16:24:05.114Z,7.30
2018-05-18T16:26:37.346Z,6.60
2018-05-18T16:29:12.017Z,7.13
2018-05-18T16:31:43.876Z,7.90
2018-05-18T16:37:13.580Z,7.57
2018-05-18T16:39:49.973Z,6.70
2018-05-18T16:42:28.371Z,7.77
2018-05-18T16:45:00.720Z,7.57
2018-05-18T16:47:31.133Z,7.07
2018-05-18T16:50:01.767Z,7.20
2018-05-18T16:52:55.769Z,6.93
2018-05-18T16:55:27.645Z,6.63
2018-05-18T16:58:00.447Z,6.63
2018-05-18T17:00:32.191Z,7.00
2018-05-18T17:06:02.536Z,6.83
2018-05-18T17:08:41.855Z,7.20
2018-05-18T17:11:22.014Z,6.77
2018-05-18T17:13:55.073Z,6.47
2018-05-18T17:16:32.058Z,7.30
2018-05-18T17:19:13.609Z,6.67
2018-05-18T17:24:53.031Z,6.67
2018-05-18T17:27:24.565Z,7.47
2018-05-18T17:30:11.230Z,7.83
2018-05-18T17:32:53.676Z,7.20
2018-05-18T17:35:41.224Z,6.70
2018-05-18T17:38:11.325Z,7.03
2018-05-18T17:46:35.553Z,6.60
2018-05-18T17:49:13.350Z,7.43
2018-05-18T17:54:31.829Z,7.00
2018-05-18T17:57:03.981Z,8.03
2018-05-18T17:59:36.360Z,7.17
2018-05-18T18:02:24.189Z,7.43
2018-05-18T18:04:59.153Z,8.63
2018-05-18T18:07:39.823Z,7.70
2018-05-18T18:10:08.506Z,8.60
2018-05-18T18:15:54.006Z,8.30
2018-05-18T18:18:27.600Z,8.63
2018-05-18T18:27:22.515Z,9.90
2018-05-18T18:30:02.263Z,9.30
2018-05-18T18:32:37.228Z,9.90
2018-05-18T18:40:54.612Z,9.50
2018-05-18T18:43:34.953Z,8.63
2018-05-18T18:51:29.948Z,9.43
2018-05-18T18:54:16.347Z,9.57
2018-05-18T18:57:01.642Z,8.80
2018-05-18T18:59:39.151Z,10.00
2018-05-18T19:02:30.436Z,9.30
2018-05-18T19:05:03.232Z,9.60
2018-05-18T19:07:34.047Z,8.77
2018-05-18T19:13:00.688Z,9.67
2018-05-18T19:15:37.067Z,8.90
2018-05-18T19:18:05.424Z,9.33
2018-05-18T19:20:56.882Z,9.67
2018-05-18T19:23:27.224Z,9.90
2018-05-18T19:26:01.508Z,9.33
2018-05-18T19:31:11.667Z,8.23
2018-05-18T19:33:43.442Z,9.57
2018-05-18T19:36:18.492Z,9.63
2018-05-18T19:38:50.777Z,9.13
2018-05-18T19:41:31.555Z,8.57
2018-05-18T19:44:05.722Z,8.00
2018-05-18T19:46:46.629Z,8.50
2018-05-18T19:49:25.821Z,8.73
2018-05-18T19:54:50.851Z,8.83
2018-05-18T19:57:26.207Z,9.20
2018-05-18T20:00:05.136Z,8.37
2018-05-18T20:02:39.836Z,8.27
2018-05-18T20:05:15.701Z,9.23
2018-05-18T20:11:04.168Z,9.03
2018-05-18T20:13:35.287Z,8.80
2018-05-18T20:22:14.802Z,8.90
2018-05-18T20:24:59.954Z,8.83
2018-05-18T20:30:11.974Z,8.60
2018-05-18T20:38:46.874Z,9.63
2018-05-18T20:41:23.813Z,9.57
2018-05-18T20:43:54.040Z,8.87
2018-05-18T20:46:26.745Z,9.43
2018-05-18T20:48:59.010Z,9.90
2018-05-18T20:57:16.040Z,9.53
2018-05-18T20:59:43.967Z,10.60
2018-05-18T21:02:25.083Z,10.33
2018-05-18T21:07:51.729Z,9.73
2018-05-18T21:10:27.861Z,10.10
2018-05-18T21:12:59.033Z,10.17
2018-05-18T21:15:30.518Z,10.13
2018-05-18T21:18:08.201Z,10.00
2018-05-18T21:26:24.341Z,9.80
2018-05-18T21:28:56.423Z,9.43
2018-05-18T21:31:30.947Z,10.67
2018-05-18T21:34:12.627Z,10.13
2018-05-18T21:36:57.887Z,11.53
2018-05-18T21:39:29.821Z,11.53
2018-05-18T21:41:59.792Z,10.23
2018-05-18T21:44:33.978Z,10.00
2018-05-18T21:47:08.500Z,10.60
2018-05-18T21:49:42.525Z,10.50
2018-05-18T21:52:10.712Z,11.90
2018-05-18T21:54:40.273Z,11.00
2018-05-18T21:57:11.872Z,11.23
2018-05-18T21:59:43.085Z,10.60
2018-05-18T22:02:15.900Z,11.83
2018-05-18T22:04:59.094Z,11.47
2018-05-18T22:07:41.380Z,11.40
2018-05-18T22:10:19.076Z,11.40
2018-05-18T22:12:46.920Z,11.23
2018-05-18T22:15:14.615Z,11.03
2018-05-18T22:20:34.626Z,11.37
2018-05-18T22:23:02.404Z,11.87
2018-05-18T22:25:31.970Z,11.60
2018-05-18T22:27:59.622Z,11.40
2018-05-18T22:33:17.854Z,10.57
2018-05-18T22:35:45.768Z,11.00
2018-05-18T22:38:18.525Z,10.23
2018-05-18T22:40:47.017Z,9.77
2018-05-18T22:45:55.399Z,10.70
2018-05-18T22:48:23.285Z,10.63
2018-05-18T22:51:14.203Z,10.67
2018-05-18T22:53:41.938Z,10.50
2018-05-18T22:56:15.282Z,11.10
2018-05-18T22:58:42.997Z,10.67
2018-05-18T23:01:12.198Z,10.70
2018-05-18T23:03:45.471Z,10.17
2018-05-18T23:06:14.612Z,11.13
